createdAt,value
2018-02-07T00:00:05.530Z,17.57
2018-02-07T00:05:07.598Z,18.10
2018-02-07T00:10:08.935Z,19.57
2018-02-07T00:15:10.363Z,16.30
2018-02-07T00:20:18.611Z,18.83
2018-02-07T00:25:19.971Z,23.90
2018-02-07T00:30:21.303Z,19.87
2018-02-07T00:35:22.655Z,17.77
2018-02-07T00:40:23.964Z,16.50
2018-02-07T00:45:25.312Z,18.30
2018-02-07T00:50:27.373Z,17.83
2018-02-07T00:55:28.734Z,20.10
2018-02-07T01:00:30.092Z,15.57
2018-02-07T01:05:32.181Z,15.63
2018-02-07T01:10:33.541Z,17.73
2018-02-07T01:15:34.886Z,18.60
2018-02-07T01:20:36.951Z,16.70
2018-02-07T01:25:38.303Z,15.73
2018-02-07T01:30:39.683Z,15.97
2018-02-07T01:35:41.032Z,15.40
2018-02-07T01:40:42.429Z,18.93
2018-02-07T01:45:43.851Z,17.80
2018-02-07T01:50:45.175Z,14.83
2018-02-07T01:55:46.545Z,16.30
2018-02-07T02:00:47.911Z,23.40
2018-02-07T02:05:49.979Z,15.70
2018-02-07T02:10:51.302Z,18.10
2018-02-07T02:15:53.366Z,15.87
2018-02-07T02:20:54.719Z,15.10
2018-02-07T02:25:56.047Z,19.03
2018-02-07T02:30:57.392Z,12.97
2018-02-07T02:36:17.236Z,16.90
2018-02-07T02:41:18.547Z,19.70
2018-02-07T02:46:19.884Z,15.80
2018-02-07T02:51:21.957Z,19.77
2018-02-07T02:56:23.267Z,15.10
2018-02-07T03:01:24.574Z,12.90
2018-02-07T03:06:26.618Z,13.63
2018-02-07T03:11:27.947Z,15.33
2018-02-07T03:16:29.296Z,16.00
2018-02-07T03:21:30.620Z,14.53
2018-02-07T03:26:31.951Z,15.67
2018-02-07T03:31:33.313Z,14.97
2018-02-07T03:36:34.644Z,18.70
2018-02-07T03:41:36.000Z,17.40
2018-02-07T03:46:38.104Z,13.80
2018-02-07T03:51:40.166Z,13.77
2018-02-07T03:56:41.503Z,15.57
2018-02-07T04:01:43.636Z,16.40
2018-02-07T04:06:44.951Z,14.70
2018-02-07T04:11:46.291Z,14.03
2018-02-07T04:16:48.404Z,14.47
2018-02-07T04:21:49.737Z,16.27
2018-02-07T04:26:51.103Z,16.67
2018-02-07T04:31:52.452Z,21.50
2018-02-07T04:36:53.813Z,16.20
2018-02-07T04:41:55.152Z,15.80
2018-02-07T04:46:56.483Z,15.37
2018-02-07T04:51:57.796Z,18.20
2018-02-07T04:56:59.126Z,17.10
2018-02-07T05:02:01.257Z,16.13
2018-02-07T05:07:02.615Z,14.00
2018-02-07T05:12:04.733Z,18.03
2018-02-07T05:17:06.096Z,19.83
2018-02-07T05:22:08.277Z,17.10
2018-02-07T05:27:10.548Z,17.40
2018-02-07T05:32:11.982Z,13.53
2018-02-07T05:37:14.644Z,16.10
2018-02-07T05:42:16.722Z,19.80
2018-02-07T05:47:19.314Z,18.90
2018-02-07T05:52:21.401Z,16.50
2018-02-07T05:57:23.867Z,25.93
2018-02-07T06:02:26.361Z,16.77
2018-02-07T06:07:28.787Z,21.20
2018-02-07T06:12:31.870Z,16.27
2018-02-07T06:17:39.192Z,18.40
2018-02-07T06:22:41.523Z,21.50
2018-02-07T06:27:42.882Z,18.63
2018-02-07T06:32:44.313Z,20.63
2018-02-07T06:37:45.706Z,16.07
2018-02-07T06:42:47.075Z,21.73
2018-02-07T06:47:49.155Z,17.37
2018-02-07T06:52:50.478Z,17.03
2018-02-07T06:57:52.548Z,19.63
2018-02-07T07:02:54.722Z,19.90
2018-02-07T07:07:56.052Z,18.30
2018-02-07T07:12:57.390Z,19.80
2018-02-07T07:17:58.709Z,17.20
2018-02-07T07:23:00.039Z,21.77
2018-02-07T07:28:01.530Z,17.57
2018-02-07T07:33:03.591Z,18.53
2018-02-07T07:38:04.932Z,18.90
2018-02-07T07:43:06.987Z,22.83
2018-02-07T07:48:08.316Z,21.77
2018-02-07T07:53:09.664Z,20.53
2018-02-07T07:58:11.116Z,20.07
2018-02-07T08:03:12.488Z,22.93
2018-02-07T08:08:13.817Z,20.20
2018-02-07T08:13:15.172Z,23.73
2018-02-07T08:18:17.267Z,19.20
2018-02-07T08:23:18.591Z,18.80
2018-02-07T08:28:19.967Z,19.67
2018-02-07T08:33:22.049Z,24.07
2018-02-07T08:38:23.387Z,20.20
2018-02-07T08:43:24.736Z,15.50
2018-02-07T08:48:26.115Z,24.37
2018-02-07T08:53:27.539Z,22.57
2018-02-07T08:58:29.630Z,23.90
2018-02-07T09:03:30.971Z,25.37
2018-02-07T09:08:32.347Z,21.00
2018-02-07T09:13:33.685Z,16.17
2018-02-07T09:18:41.954Z,22.30
2018-02-07T09:23:44.061Z,23.40
2018-02-07T09:28:45.462Z,18.60
2018-02-07T09:33:47.531Z,21.20
2018-02-07T09:38:48.867Z,20.67
2018-02-07T09:43:50.182Z,17.60
2018-02-07T09:48:51.544Z,20.67
2018-02-07T09:53:53.589Z,28.10
2018-02-07T09:58:54.917Z,19.13
2018-02-07T10:03:56.242Z,20.30
2018-02-07T10:08:57.564Z,16.43
2018-02-07T10:13:58.902Z,17.00
2018-02-07T10:19:00.970Z,21.20
2018-02-07T10:24:02.356Z,25.00
2018-02-07T10:29:03.706Z,24.93
2018-02-07T10:34:05.059Z,23.03
2018-02-07T10:39:06.394Z,22.57
2018-02-07T10:44:07.714Z,15.00
2018-02-07T10:49:09.053Z,18.27
2018-02-07T10:54:10.398Z,17.80
2018-02-07T10:59:11.767Z,22.20
2018-02-07T11:04:13.180Z,21.47
2018-02-07T11:09:14.518Z,19.63
2018-02-07T11:14:15.864Z,20.77
2018-02-07T11:19:17.270Z,25.97
2018-02-07T11:24:18.592Z,17.60
2018-02-07T11:29:19.931Z,17.43
2018-02-07T11:34:21.287Z,29.00
2018-02-07T11:39:22.657Z,20.53
2018-02-07T11:44:23.958Z,27.60
2018-02-07T11:49:25.285Z,23.50
2018-02-07T11:54:26.611Z,17.40
2018-02-07T11:59:28.973Z,18.07
2018-02-07T12:04:30.308Z,16.20
2018-02-07T12:09:32.406Z,22.70
2018-02-07T12:14:33.715Z,17.40
2018-02-07T12:19:35.808Z,22.20
2018-02-07T12:24:37.920Z,18.03
2018-02-07T12:29:40.005Z,16.83
2018-02-07T12:34:41.348Z,18.40
2018-02-07T12:39:42.991Z,21.07
2018-02-07T12:44:44.361Z,18.60
2018-02-07T12:49:45.726Z,18.07
2018-02-07T12:54:47.348Z,23.10
2018-02-07T12:59:48.676Z,21.83
2018-02-07T13:04:50.023Z,22.53
2018-02-07T13:09:51.379Z,20.40
2018-02-07T13:14:52.762Z,18.30
2018-02-07T13:19:54.079Z,17.17
2018-02-07T13:24:55.387Z,17.93
2018-02-07T13:29:56.715Z,19.60
2018-02-07T13:34:58.045Z,18.63
2018-02-07T13:39:59.418Z,21.80
2018-02-07T13:45:00.764Z,21.70
2018-02-07T13:50:02.163Z,19.07
2018-02-07T13:55:03.464Z,20.80
2018-02-07T14:00:05.610Z,21.57
2018-02-07T14:05:06.932Z,22.53
2018-02-07T14:10:08.267Z,22.60
2018-02-07T14:15:09.823Z,24.50
2018-02-07T14:20:11.250Z,22.83
2018-02-07T14:25:13.329Z,20.73
2018-02-07T14:30:14.672Z,23.13
2018-02-07T14:35:16.012Z,21.70
2018-02-07T14:40:17.370Z,20.63
2018-02-07T14:45:18.723Z,22.10
2018-02-07T14:50:20.096Z,21.10
2018-02-07T14:55:22.161Z,24.23
2018-02-07T15:00:23.527Z,24.23
2018-02-07T15:05:24.844Z,26.37
2018-02-07T15:10:26.224Z,18.87
2018-02-07T15:15:27.597Z,22.83
2018-02-07T15:20:28.935Z,24.37
2018-02-07T15:25:30.326Z,19.03
2018-02-07T15:30:31.651Z,23.57
2018-02-07T15:35:33.004Z,17.67
2018-02-07T15:40:34.490Z,15.63
2018-02-07T15:45:35.847Z,19.00
2018-02-07T15:50:37.158Z,29.43
2018-02-07T15:55:38.628Z,21.50
2018-02-07T16:00:40.039Z,18.70
2018-02-07T16:05:41.416Z,20.07
2018-02-07T16:10:42.748Z,23.10
2018-02-07T16:15:44.128Z,26.97
2018-02-07T16:20:45.553Z,25.10
2018-02-07T16:25:47.733Z,25.27
2018-02-07T16:30:49.076Z,22.57
2018-02-07T16:35:50.439Z,24.17
2018-02-07T16:40:51.785Z,27.20
2018-02-07T16:45:53.143Z,23.97
2018-02-07T16:50:54.534Z,37.20
2018-02-07T16:55:55.893Z,21.10
2018-02-07T17:00:57.240Z,27.90
2018-02-07T17:05:58.588Z,30.33
2018-02-07T17:10:59.957Z,28.07
2018-02-07T17:16:02.059Z,24.27
2018-02-07T17:21:03.414Z,20.70
2018-02-07T17:26:05.128Z,21.90
2018-02-07T17:31:07.902Z,20.00
2018-02-07T17:36:09.810Z,17.43
2018-02-07T17:41:11.829Z,30.43
2018-02-07T17:46:13.798Z,20.87
2018-02-07T17:51:15.326Z,22.60
2018-02-07T17:56:17.610Z,23.70
2018-02-07T18:01:20.029Z,31.83
2018-02-07T18:06:22.428Z,42.43
2018-02-07T18:11:24.556Z,31.80
2018-02-07T18:16:25.946Z,27.83
2018-02-07T18:21:27.571Z,34.30
2018-02-07T18:26:28.982Z,28.70
2018-02-07T18:31:30.352Z,25.23
2018-02-07T18:36:31.747Z,34.70
2018-02-07T18:41:33.755Z,26.10
2018-02-07T18:46:35.148Z,30.40
2018-02-07T18:51:36.505Z,27.43
2018-02-07T18:56:37.869Z,25.27
2018-02-07T19:01:40.007Z,22.17
2018-02-07T19:06:41.395Z,20.93
2018-02-07T19:11:42.763Z,24.20
2018-02-07T19:16:44.931Z,23.70
2018-02-07T19:21:47.598Z,33.90
2018-02-07T19:26:49.684Z,29.80
2018-02-07T19:31:51.093Z,24.30
2018-02-07T19:36:52.496Z,24.10
2018-02-07T19:41:54.632Z,20.43
2018-02-07T19:46:56.002Z,22.60
2018-02-07T19:51:57.352Z,23.27
2018-02-07T19:56:58.779Z,22.63
2018-02-07T20:02:00.678Z,24.67
2018-02-07T20:07:02.843Z,20.80
2018-02-07T20:12:04.262Z,29.83
2018-02-07T20:17:05.696Z,22.37
2018-02-07T20:22:07.030Z,29.70
2018-02-07T20:27:08.503Z,47.73
2018-02-07T20:32:09.852Z,45.43
2018-02-07T20:37:11.229Z,30.73
2018-02-07T20:42:13.351Z,24.20
2018-02-07T20:47:14.728Z,23.67
2018-02-07T20:52:16.862Z,22.80
2018-02-07T20:57:18.246Z,30.37
2018-02-07T21:02:19.659Z,23.47
2018-02-07T21:07:21.016Z,26.43
2018-02-07T21:12:22.382Z,56.60
2018-02-07T21:17:24.507Z,78.17
2018-02-07T21:22:25.883Z,36.90
2018-02-07T21:27:28.003Z,30.63
2018-02-07T21:32:29.399Z,27.10
2018-02-07T21:37:30.794Z,26.80
2018-02-07T21:42:32.475Z,29.97
2018-02-07T21:47:34.596Z,26.50
2018-02-07T21:52:35.943Z,22.67
2018-02-07T21:57:37.275Z,23.47
2018-02-07T22:02:38.635Z,23.60
2018-02-07T22:07:40.009Z,26.87
2018-02-07T22:12:41.358Z,29.00
2018-02-07T22:17:42.795Z,23.90
2018-02-07T22:22:44.326Z,24.20
2018-02-07T22:27:45.853Z,17.93
2018-02-07T22:32:47.257Z,33.40
2018-02-07T22:37:48.642Z,22.83
2018-02-07T22:42:50.014Z,21.90
2018-02-07T22:47:51.383Z,25.60
2018-02-07T22:52:52.746Z,22.13
2018-02-07T22:57:54.144Z,30.23
2018-02-07T23:02:55.459Z,23.77
2018-02-07T23:07:56.939Z,29.33
2018-02-07T23:12:59.026Z,33.93
2018-02-07T23:18:00.443Z,27.33
2018-02-07T23:23:01.753Z,22.23
2018-02-07T23:28:03.113Z,25.63
2018-02-07T23:33:05.246Z,31.10
2018-02-07T23:38:06.560Z,30.90
2018-02-07T23:43:07.893Z,31.63
2018-02-07T23:48:09.295Z,25.87
2018-02-07T23:53:11.412Z,29.07
2018-02-07T23:58:12.775Z,25.07
